sensor_id;sensor_type;location;lat;lon;timestamp;P1;durP1;ratioP1;P2;durP2;ratioP2
57726;SDS011;43568;43.180;-0.028;2022-09-19T00:01:52;2.95;;;2.85;;
57726;SDS011;43568;43.180;-0.028;2022-09-19T00:04:25;3.00;;;2.90;;
57726;SDS011;43568;43.180;-0.028;2022-09-19T00:06:52;2.90;;;2.80;;
57726;SDS011;43568;43.180;-0.028;2022-09-19T00:09:19;3.05;;;2.80;;
57726;SDS011;43568;43.180;-0.028;2022-09-19T00:11:46;3.00;;;2.90;;
57726;SDS011;43568;43.180;-0.028;2022-09-19T00:14:13;2.85;;;2.75;;
57726;SDS011;43568;43.180;-0.028;2022-09-19T00:16:40;3.20;;;3.10;;
57726;SDS011;43568;43.180;-0.028;2022-09-19T00:19:08;3.00;;;2.90;;
57726;SDS011;43568;43.180;-0.028;2022-09-19T00:21:36;3.10;;;3.00;;
57726;SDS011;43568;43.180;-0.028;2022-09-19T00:24:04;3.00;;;2.90;;
57726;SDS011;43568;43.180;-0.028;2022-09-19T00:26:48;3.17;;;3.08;;
57726;SDS011;43568;43.180;-0.028;2022-09-19T00:29:15;2.88;;;2.78;;
57726;SDS011;43568;43.180;-0.028;2022-09-19T00:31:42;3.00;;;2.90;;
57726;SDS011;43568;43.180;-0.028;2022-09-19T00:34:09;2.83;;;2.73;;
57726;SDS011;43568;43.180;-0.028;2022-09-19T00:36:36;3.20;;;3.00;;
57726;SDS011;43568;43.180;-0.028;2022-09-19T00:39:03;2.90;;;2.80;;
57726;SDS011;43568;43.180;-0.028;2022-09-19T00:41:29;2.90;;;2.80;;
57726;SDS011;43568;43.180;-0.028;2022-09-19T00:43:56;3.10;;;3.00;;
57726;SDS011;43568;43.180;-0.028;2022-09-19T00:46:24;3.00;;;2.90;;
57726;SDS011;43568;43.180;-0.028;2022-09-19T00:48:52;2.85;;;2.75;;
57726;SDS011;43568;43.180;-0.028;2022-09-19T00:51:24;2.90;;;2.80;;
57726;SDS011;43568;43.180;-0.028;2022-09-19T00:53:57;3.08;;;2.97;;
57726;SDS011;43568;43.180;-0.028;2022-09-19T00:56:24;2.95;;;2.85;;
57726;SDS011;43568;43.180;-0.028;2022-09-19T00:58:50;2.92;;;2.83;;
57726;SDS011;43568;43.180;-0.028;2022-09-19T01:01:17;3.00;;;2.90;;
57726;SDS011;43568;43.180;-0.028;2022-09-19T01:03:44;3.00;;;2.90;;
57726;SDS011;43568;43.180;-0.028;2022-09-19T01:17:15;3.22;;;3.13;;
57726;SDS011;43568;43.180;-0.028;2022-09-19T01:30:28;3.55;;;3.35;;
57726;SDS011;43568;43.180;-0.028;2022-09-19T01:32:59;3.42;;;3.33;;
57726;SDS011;43568;43.180;-0.028;2022-09-19T01:35:27;3.10;;;3.00;;
57726;SDS011;43568;43.180;-0.028;2022-09-19T01:37:57;3.80;;;3.50;;
57726;SDS011;43568;43.180;-0.028;2022-09-19T01:40:25;3.20;;;3.10;;
57726;SDS011;43568;43.180;-0.028;2022-09-19T01:42:52;3.35;;;3.25;;
57726;SDS011;43568;43.180;-0.028;2022-09-19T01:45:32;3.15;;;3.05;;
57726;SDS011;43568;43.180;-0.028;2022-09-19T01:48:24;3.00;;;2.90;;
57726;SDS011;43568;43.180;-0.028;2022-09-19T01:51:04;3.17;;;3.08;;
57726;SDS011;43568;43.180;-0.028;2022-09-19T02:01:31;3.15;;;3.05;;
57726;SDS011;43568;43.180;-0.028;2022-09-19T02:06:41;3.40;;;3.30;;
57726;SDS011;43568;43.180;-0.028;2022-09-19T02:09:15;3.13;;;3.03;;
57726;SDS011;43568;43.180;-0.028;2022-09-19T02:11:44;3.33;;;3.22;;
57726;SDS011;43568;43.180;-0.028;2022-09-19T02:14:12;3.10;;;3.00;;
57726;SDS011;43568;43.180;-0.028;2022-09-19T02:16:47;3.10;;;3.00;;
57726;SDS011;43568;43.180;-0.028;2022-09-19T02:19:17;3.42;;;3.33;;
57726;SDS011;43568;43.180;-0.028;2022-09-19T02:21:46;3.40;;;3.30;;
57726;SDS011;43568;43.180;-0.028;2022-09-19T02:26:40;3.20;;;3.10;;
57726;SDS011;43568;43.180;-0.028;2022-09-19T02:29:09;3.35;;;3.25;;
57726;SDS011;43568;43.180;-0.028;2022-09-19T02:31:37;3.50;;;3.40;;
57726;SDS011;43568;43.180;-0.028;2022-09-19T02:34:04;3.33;;;3.22;;
57726;SDS011;43568;43.180;-0.028;2022-09-19T02:49:33;3.63;;;3.53;;
57726;SDS011;43568;43.180;-0.028;2022-09-19T02:52:05;3.90;;;3.60;;
57726;SDS011;43568;43.180;-0.028;2022-09-19T02:54:34;3.20;;;3.10;;
57726;SDS011;43568;43.180;-0.028;2022-09-19T02:57:05;3.35;;;3.25;;
57726;SDS011;43568;43.180;-0.028;2022-09-19T02:59:33;3.72;;;3.63;;
57726;SDS011;43568;43.180;-0.028;2022-09-19T03:02:02;3.33;;;3.22;;
57726;SDS011;43568;43.180;-0.028;2022-09-19T03:07:06;3.40;;;3.30;;
57726;SDS011;43568;43.180;-0.028;2022-09-19T03:09:37;3.58;;;3.47;;
57726;SDS011;43568;43.180;-0.028;2022-09-19T03:14:36;3.20;;;3.10;;
57726;SDS011;43568;43.180;-0.028;2022-09-19T03:17:02;3.33;;;3.22;;
57726;SDS011;43568;43.180;-0.028;2022-09-19T03:19:30;3.60;;;3.50;;
57726;SDS011;43568;43.180;-0.028;2022-09-19T03:21:57;3.20;;;3.10;;
57726;SDS011;43568;43.180;-0.028;2022-09-19T03:24:24;3.30;;;3.20;;
57726;SDS011;43568;43.180;-0.028;2022-09-19T03:26:51;3.40;;;3.30;;
57726;SDS011;43568;43.180;-0.028;2022-09-19T03:29:17;3.17;;;3.08;;
57726;SDS011;43568;43.180;-0.028;2022-09-19T03:31:43;3.92;;;3.53;;
57726;SDS011;43568;43.180;-0.028;2022-09-19T03:34:10;3.53;;;3.42;;
57726;SDS011;43568;43.180;-0.028;2022-09-19T03:36:37;3.20;;;3.10;;
57726;SDS011;43568;43.180;-0.028;2022-09-19T03:39:05;3.05;;;2.95;;
57726;SDS011;43568;43.180;-0.028;2022-09-19T03:41:32;3.00;;;2.90;;
57726;SDS011;43568;43.180;-0.028;2022-09-19T03:43:58;3.20;;;3.10;;
57726;SDS011;43568;43.180;-0.028;2022-09-19T03:46:27;3.33;;;3.20;;
57726;SDS011;43568;43.180;-0.028;2022-09-19T03:48:53;3.30;;;3.20;;
57726;SDS011;43568;43.180;-0.028;2022-09-19T03:51:20;3.30;;;3.20;;
57726;SDS011;43568;43.180;-0.028;2022-09-19T03:53:46;3.83;;;3.53;;
57726;SDS011;43568;43.180;-0.028;2022-09-19T03:56:13;3.30;;;3.20;;
57726;SDS011;43568;43.180;-0.028;2022-09-19T03:58:40;3.20;;;3.10;;
57726;SDS011;43568;43.180;-0.028;2022-09-19T04:01:06;3.57;;;3.47;;
57726;SDS011;43568;43.180;-0.028;2022-09-19T04:03:34;3.67;;;3.58;;
57726;SDS011;43568;43.180;-0.028;2022-09-19T04:06:00;3.22;;;3.13;;
57726;SDS011;43568;43.180;-0.028;2022-09-19T04:08:27;3.80;;;3.60;;
57726;SDS011;43568;43.180;-0.028;2022-09-19T04:10:53;3.60;;;3.50;;
57726;SDS011;43568;43.180;-0.028;2022-09-19T04:13:19;3.10;;;3.00;;
57726;SDS011;43568;43.180;-0.028;2022-09-19T04:15:47;3.40;;;3.30;;
57726;SDS011;43568;43.180;-0.028;2022-09-19T04:18:13;3.17;;;3.08;;
57726;SDS011;43568;43.180;-0.028;2022-09-19T04:20:39;3.30;;;3.20;;
57726;SDS011;43568;43.180;-0.028;2022-09-19T04:23:05;3.35;;;3.25;;
57726;SDS011;43568;43.180;-0.028;2022-09-19T04:25:33;3.30;;;3.20;;
57726;SDS011;43568;43.180;-0.028;2022-09-19T04:28:04;3.45;;;3.35;;
57726;SDS011;43568;43.180;-0.028;2022-09-19T04:30:34;3.38;;;3.28;;
57726;SDS011;43568;43.180;-0.028;2022-09-19T04:33:00;3.20;;;3.10;;
57726;SDS011;43568;43.180;-0.028;2022-09-19T04:35:28;3.38;;;3.28;;
57726;SDS011;43568;43.180;-0.028;2022-09-19T04:37:54;3.20;;;3.10;;
57726;SDS011;43568;43.180;-0.028;2022-09-19T04:40:20;3.20;;;3.10;;
57726;SDS011;43568;43.180;-0.028;2022-09-19T04:42:47;3.40;;;3.30;;
57726;SDS011;43568;43.180;-0.028;2022-09-19T04:45:13;3.58;;;3.47;;
57726;SDS011;43568;43.180;-0.028;2022-09-19T04:47:45;3.60;;;3.50;;
57726;SDS011;43568;43.180;-0.028;2022-09-19T04:50:12;3.30;;;3.20;;
57726;SDS011;43568;43.180;-0.028;2022-09-19T04:52:38;3.50;;;3.40;;
57726;SDS011;43568;43.180;-0.028;2022-09-19T04:55:05;3.08;;;2.97;;
57726;SDS011;43568;43.180;-0.028;2022-09-19T04:57:31;3.40;;;3.30;;
57726;SDS011;43568;43.180;-0.028;2022-09-19T04:59:57;3.58;;;3.47;;
57726;SDS011;43568;43.180;-0.028;2022-09-19T05:02:23;3.67;;;3.40;;
57726;SDS011;43568;43.180;-0.028;2022-09-19T05:04:49;3.50;;;3.40;;
57726;SDS011;43568;43.180;-0.028;2022-09-19T05:07:16;3.58;;;3.40;;
57726;SDS011;43568;43.180;-0.028;2022-09-19T05:09:44;3.53;;;3.42;;
57726;SDS011;43568;43.180;-0.028;2022-09-19T05:12:10;3.40;;;3.30;;
57726;SDS011;43568;43.180;-0.028;2022-09-19T05:14:36;3.50;;;3.40;;
57726;SDS011;43568;43.180;-0.028;2022-09-19T05:17:02;3.30;;;3.20;;
57726;SDS011;43568;43.180;-0.028;2022-09-19T05:19:28;3.25;;;3.15;;
57726;SDS011;43568;43.180;-0.028;2022-09-19T05:24:23;4.30;;;4.10;;
57726;SDS011;43568;43.180;-0.028;2022-09-19T05:26:49;3.20;;;3.10;;
57726;SDS011;43568;43.180;-0.028;2022-09-19T05:29:15;3.20;;;3.10;;
57726;SDS011;43568;43.180;-0.028;2022-09-19T05:31:42;3.30;;;3.20;;
57726;SDS011;43568;43.180;-0.028;2022-09-19T05:34:11;3.20;;;3.10;;
57726;SDS011;43568;43.180;-0.028;2022-09-19T05:36:38;3.50;;;3.30;;
57726;SDS011;43568;43.180;-0.028;2022-09-19T05:39:04;4.43;;;4.20;;
57726;SDS011;43568;43.180;-0.028;2022-09-19T05:41:31;3.60;;;3.50;;
57726;SDS011;43568;43.180;-0.028;2022-09-19T05:43:58;3.67;;;3.58;;
57726;SDS011;43568;43.180;-0.028;2022-09-19T05:46:24;3.40;;;3.30;;
57726;SDS011;43568;43.180;-0.028;2022-09-19T05:48:50;3.63;;;3.42;;
57726;SDS011;43568;43.180;-0.028;2022-09-19T05:51:16;3.88;;;3.67;;
57726;SDS011;43568;43.180;-0.028;2022-09-19T05:53:42;3.38;;;3.28;;
57726;SDS011;43568;43.180;-0.028;2022-09-19T05:56:18;3.47;;;3.38;;
57726;SDS011;43568;43.180;-0.028;2022-09-19T05:58:44;3.47;;;3.38;;
57726;SDS011;43568;43.180;-0.028;2022-09-19T06:01:11;3.45;;;3.35;;
57726;SDS011;43568;43.180;-0.028;2022-09-19T06:03:37;3.30;;;3.20;;
57726;SDS011;43568;43.180;-0.028;2022-09-19T06:06:07;3.30;;;3.20;;
57726;SDS011;43568;43.180;-0.028;2022-09-19T06:08:36;3.42;;;3.33;;
57726;SDS011;43568;43.180;-0.028;2022-09-19T06:11:03;3.20;;;3.10;;
57726;SDS011;43568;43.180;-0.028;2022-09-19T06:13:29;3.10;;;3.00;;
57726;SDS011;43568;43.180;-0.028;2022-09-19T06:16:14;2.97;;;2.88;;
57726;SDS011;43568;43.180;-0.028;2022-09-19T06:18:42;3.30;;;3.20;;
57726;SDS011;43568;43.180;-0.028;2022-09-19T06:21:08;3.10;;;3.00;;
57726;SDS011;43568;43.180;-0.028;2022-09-19T06:23:34;2.88;;;2.78;;
57726;SDS011;43568;43.180;-0.028;2022-09-19T06:26:00;2.97;;;2.88;;
57726;SDS011;43568;43.180;-0.028;2022-09-19T06:28:26;2.90;;;2.80;;
57726;SDS011;43568;43.180;-0.028;2022-09-19T06:30:52;3.40;;;3.20;;
57726;SDS011;43568;43.180;-0.028;2022-09-19T06:33:18;3.00;;;2.90;;
57726;SDS011;43568;43.180;-0.028;2022-09-19T06:35:44;3.70;;;3.50;;
57726;SDS011;43568;43.180;-0.028;2022-09-19T06:38:10;3.85;;;3.75;;
57726;SDS011;43568;43.180;-0.028;2022-09-19T06:40:37;2.92;;;2.83;;
57726;SDS011;43568;43.180;-0.028;2022-09-19T06:43:04;2.60;;;2.50;;
57726;SDS011;43568;43.180;-0.028;2022-09-19T06:45:34;3.20;;;3.05;;
57726;SDS011;43568;43.180;-0.028;2022-09-19T06:48:03;3.15;;;3.05;;
57726;SDS011;43568;43.180;-0.028;2022-09-19T06:50:29;2.70;;;2.60;;
57726;SDS011;43568;43.180;-0.028;2022-09-19T06:52:56;3.00;;;2.80;;
57726;SDS011;43568;43.180;-0.028;2022-09-19T06:55:23;2.95;;;2.80;;
57726;SDS011;43568;43.180;-0.028;2022-09-19T06:57:53;3.90;;;3.70;;
57726;SDS011;43568;43.180;-0.028;2022-09-19T07:00:20;2.67;;;2.58;;
57726;SDS011;43568;43.180;-0.028;2022-09-19T07:02:49;2.80;;;2.70;;
57726;SDS011;43568;43.180;-0.028;2022-09-19T07:05:15;2.70;;;2.60;;
57726;SDS011;43568;43.180;-0.028;2022-09-19T07:07:41;2.22;;;2.22;;
57726;SDS011;43568;43.180;-0.028;2022-09-19T07:10:08;2.47;;;2.38;;
57726;SDS011;43568;43.180;-0.028;2022-09-19T07:12:34;2.20;;;2.20;;
57726;SDS011;43568;43.180;-0.028;2022-09-19T07:15:00;3.47;;;2.90;;
57726;SDS011;43568;43.180;-0.028;2022-09-19T07:17:26;2.00;;;2.00;;
57726;SDS011;43568;43.180;-0.028;2022-09-19T07:19:52;2.63;;;2.53;;
57726;SDS011;43568;43.180;-0.028;2022-09-19T07:22:18;2.28;;;2.22;;
57726;SDS011;43568;43.180;-0.028;2022-09-19T07:24:48;2.15;;;2.15;;
57726;SDS011;43568;43.180;-0.028;2022-09-19T07:27:14;2.43;;;2.33;;
57726;SDS011;43568;43.180;-0.028;2022-09-19T07:29:41;2.78;;;2.58;;
57726;SDS011;43568;43.180;-0.028;2022-09-19T07:32:07;2.42;;;2.33;;
57726;SDS011;43568;43.180;-0.028;2022-09-19T07:34:34;2.08;;;2.05;;
57726;SDS011;43568;43.180;-0.028;2022-09-19T07:37:00;2.63;;;2.42;;
57726;SDS011;43568;43.180;-0.028;2022-09-19T07:39:26;2.00;;;2.00;;
57726;SDS011;43568;43.180;-0.028;2022-09-19T07:41:52;3.05;;;2.67;;
57726;SDS011;43568;43.180;-0.028;2022-09-19T07:44:18;2.45;;;2.35;;
57726;SDS011;43568;43.180;-0.028;2022-09-19T07:46:44;2.15;;;2.13;;
57726;SDS011;43568;43.180;-0.028;2022-09-19T07:49:30;2.15;;;2.05;;
57726;SDS011;43568;43.180;-0.028;2022-09-19T07:51:56;1.80;;;1.80;;
57726;SDS011;43568;43.180;-0.028;2022-09-19T07:54:22;2.20;;;2.10;;
57726;SDS011;43568;43.180;-0.028;2022-09-19T07:56:48;1.90;;;1.90;;
57726;SDS011;43568;43.180;-0.028;2022-09-19T07:59:14;2.00;;;2.00;;
57726;SDS011;43568;43.180;-0.028;2022-09-19T08:01:40;1.70;;;1.70;;
57726;SDS011;43568;43.180;-0.028;2022-09-19T08:04:06;1.60;;;1.60;;
57726;SDS011;43568;43.180;-0.028;2022-09-19T08:06:32;1.92;;;1.92;;
57726;SDS011;43568;43.180;-0.028;2022-09-19T08:08:58;2.28;;;2.00;;
57726;SDS011;43568;43.180;-0.028;2022-09-19T08:11:24;1.58;;;1.58;;
57726;SDS011;43568;43.180;-0.028;2022-09-19T08:13:51;1.60;;;1.60;;
57726;SDS011;43568;43.180;-0.028;2022-09-19T08:16:17;1.63;;;1.63;;
57726;SDS011;43568;43.180;-0.028;2022-09-19T08:18:43;2.28;;;2.17;;
57726;SDS011;43568;43.180;-0.028;2022-09-19T08:21:09;1.60;;;1.60;;
57726;SDS011;43568;43.180;-0.028;2022-09-19T08:23:35;1.50;;;1.50;;
57726;SDS011;43568;43.180;-0.028;2022-09-19T08:26:03;1.95;;;1.60;;
57726;SDS011;43568;43.180;-0.028;2022-09-19T08:28:30;2.80;;;1.75;;
57726;SDS011;43568;43.180;-0.028;2022-09-19T08:30:59;1.60;;;1.60;;
57726;SDS011;43568;43.180;-0.028;2022-09-19T08:33:25;1.60;;;1.60;;
57726;SDS011;43568;43.180;-0.028;2022-09-19T08:35:51;1.60;;;1.60;;
57726;SDS011;43568;43.180;-0.028;2022-09-19T08:38:18;1.50;;;1.50;;
57726;SDS011;43568;43.180;-0.028;2022-09-19T08:40:57;1.50;;;1.50;;
57726;SDS011;43568;43.180;-0.028;2022-09-19T08:43:47;1.60;;;1.60;;
57726;SDS011;43568;43.180;-0.028;2022-09-19T08:46:16;1.50;;;1.50;;
57726;SDS011;43568;43.180;-0.028;2022-09-19T08:52:02;1.50;;;1.50;;
57726;SDS011;43568;43.180;-0.028;2022-09-19T08:54:19;1.55;;;1.55;;
57726;SDS011;43568;43.180;-0.028;2022-09-19T08:56:50;1.50;;;1.50;;
57726;SDS011;43568;43.180;-0.028;2022-09-19T08:59:17;2.00;;;2.00;;
57726;SDS011;43568;43.180;-0.028;2022-09-19T09:01:45;1.50;;;1.50;;
57726;SDS011;43568;43.180;-0.028;2022-09-19T09:17:22;1.20;;;1.20;;
57726;SDS011;43568;43.180;-0.028;2022-09-19T09:24:45;1.65;;;1.60;;
57726;SDS011;43568;43.180;-0.028;2022-09-19T09:27:16;1.38;;;1.38;;
57726;SDS011;43568;43.180;-0.028;2022-09-19T09:29:45;1.30;;;1.30;;
57726;SDS011;43568;43.180;-0.028;2022-09-19T09:32:19;1.30;;;1.30;;
57726;SDS011;43568;43.180;-0.028;2022-09-19T09:35:04;1.30;;;1.30;;
57726;SDS011;43568;43.180;-0.028;2022-09-19T09:37:36;1.40;;;1.40;;
57726;SDS011;43568;43.180;-0.028;2022-09-19T09:40:19;1.40;;;1.40;;
57726;SDS011;43568;43.180;-0.028;2022-09-19T09:43:05;1.30;;;1.30;;
57726;SDS011;43568;43.180;-0.028;2022-09-19T09:45:33;2.25;;;1.50;;
57726;SDS011;43568;43.180;-0.028;2022-09-19T10:04:06;1.73;;;1.63;;
57726;SDS011;43568;43.180;-0.028;2022-09-19T10:09:07;1.50;;;1.50;;
57726;SDS011;43568;43.180;-0.028;2022-09-19T10:13:59;1.40;;;1.40;;
57726;SDS011;43568;43.180;-0.028;2022-09-19T10:16:29;1.50;;;1.50;;
57726;SDS011;43568;43.180;-0.028;2022-09-19T10:18:59;1.20;;;1.20;;
57726;SDS011;43568;43.180;-0.028;2022-09-19T10:21:29;1.30;;;1.30;;
57726;SDS011;43568;43.180;-0.028;2022-09-19T10:23:55;1.30;;;1.30;;
57726;SDS011;43568;43.180;-0.028;2022-09-19T10:26:25;1.70;;;1.70;;
57726;SDS011;43568;43.180;-0.028;2022-09-19T10:28:53;1.33;;;1.33;;
57726;SDS011;43568;43.180;-0.028;2022-09-19T10:34:03;1.13;;;1.13;;
57726;SDS011;43568;43.180;-0.028;2022-09-19T10:36:32;1.42;;;1.42;;
57726;SDS011;43568;43.180;-0.028;2022-09-19T10:39:00;1.20;;;1.20;;
57726;SDS011;43568;43.180;-0.028;2022-09-19T10:41:29;1.33;;;1.33;;
57726;SDS011;43568;43.180;-0.028;2022-09-19T10:44:02;1.35;;;1.35;;
57726;SDS011;43568;43.180;-0.028;2022-09-19T10:46:48;1.20;;;1.20;;
57726;SDS011;43568;43.180;-0.028;2022-09-19T10:49:20;1.23;;;1.23;;
57726;SDS011;43568;43.180;-0.028;2022-09-19T10:51:48;1.10;;;1.10;;
57726;SDS011;43568;43.180;-0.028;2022-09-19T10:57:27;1.20;;;1.20;;
57726;SDS011;43568;43.180;-0.028;2022-09-19T11:00:02;1.20;;;1.20;;
57726;SDS011;43568;43.180;-0.028;2022-09-19T11:02:29;1.17;;;1.17;;
57726;SDS011;43568;43.180;-0.028;2022-09-19T11:07:25;1.10;;;1.10;;
57726;SDS011;43568;43.180;-0.028;2022-09-19T11:09:53;1.10;;;1.10;;
57726;SDS011;43568;43.180;-0.028;2022-09-19T11:12:24;1.38;;;1.38;;
57726;SDS011;43568;43.180;-0.028;2022-09-19T11:14:50;1.20;;;1.20;;
57726;SDS011;43568;43.180;-0.028;2022-09-19T11:20:22;1.55;;;1.55;;
57726;SDS011;43568;43.180;-0.028;2022-09-19T11:25:44;1.10;;;1.10;;
57726;SDS011;43568;43.180;-0.028;2022-09-19T11:30:47;1.40;;;1.40;;
57726;SDS011;43568;43.180;-0.028;2022-09-19T11:35:44;1.95;;;1.40;;
57726;SDS011;43568;43.180;-0.028;2022-09-19T12:01:36;1.20;;;1.20;;
57726;SDS011;43568;43.180;-0.028;2022-09-19T12:11:51;1.25;;;1.20;;
57726;SDS011;43568;43.180;-0.028;2022-09-19T12:16:49;1.10;;;1.10;;
57726;SDS011;43568;43.180;-0.028;2022-09-19T12:19:20;1.10;;;1.10;;
57726;SDS011;43568;43.180;-0.028;2022-09-19T12:21:50;1.52;;;1.27;;
57726;SDS011;43568;43.180;-0.028;2022-09-19T12:24:28;1.20;;;1.20;;
57726;SDS011;43568;43.180;-0.028;2022-09-19T12:27:16;1.20;;;1.20;;
57726;SDS011;43568;43.180;-0.028;2022-09-19T12:35:29;1.20;;;1.20;;
57726;SDS011;43568;43.180;-0.028;2022-09-19T12:40:42;1.42;;;1.35;;
57726;SDS011;43568;43.180;-0.028;2022-09-19T12:45:37;1.20;;;1.20;;
57726;SDS011;43568;43.180;-0.028;2022-09-19T12:50:33;1.10;;;1.10;;
57726;SDS011;43568;43.180;-0.028;2022-09-19T12:55:52;1.10;;;1.10;;
57726;SDS011;43568;43.180;-0.028;2022-09-19T12:58:31;1.20;;;1.20;;
57726;SDS011;43568;43.180;-0.028;2022-09-19T13:01:10;1.30;;;1.30;;
57726;SDS011;43568;43.180;-0.028;2022-09-19T13:03:40;1.20;;;1.20;;
57726;SDS011;43568;43.180;-0.028;2022-09-19T13:06:12;1.13;;;1.13;;
57726;SDS011;43568;43.180;-0.028;2022-09-19T13:08:54;1.25;;;1.25;;
57726;SDS011;43568;43.180;-0.028;2022-09-19T13:11:40;1.10;;;1.10;;
57726;SDS011;43568;43.180;-0.028;2022-09-19T13:14:17;1.20;;;1.20;;
57726;SDS011;43568;43.180;-0.028;2022-09-19T13:16:46;1.10;;;1.10;;
57726;SDS011;43568;43.180;-0.028;2022-09-19T13:19:34;1.50;;;1.50;;
57726;SDS011;43568;43.180;-0.028;2022-09-19T13:22:20;1.13;;;1.13;;
57726;SDS011;43568;43.180;-0.028;2022-09-19T13:25:05;1.20;;;1.20;;
57726;SDS011;43568;43.180;-0.028;2022-09-19T13:27:33;1.92;;;1.83;;
57726;SDS011;43568;43.180;-0.028;2022-09-19T13:30:00;1.13;;;1.13;;
57726;SDS011;43568;43.180;-0.028;2022-09-19T13:32:29;1.20;;;1.20;;
57726;SDS011;43568;43.180;-0.028;2022-09-19T13:47:54;1.45;;;1.45;;
57726;SDS011;43568;43.180;-0.028;2022-09-19T13:50:34;1.10;;;1.10;;
57726;SDS011;43568;43.180;-0.028;2022-09-19T13:53:03;1.10;;;1.10;;
57726;SDS011;43568;43.180;-0.028;2022-09-19T13:55:31;1.33;;;1.33;;
57726;SDS011;43568;43.180;-0.028;2022-09-19T14:00:43;1.35;;;1.35;;
57726;SDS011;43568;43.180;-0.028;2022-09-19T14:03:24;1.73;;;1.73;;
57726;SDS011;43568;43.180;-0.028;2022-09-19T14:05:51;1.10;;;1.10;;
57726;SDS011;43568;43.180;-0.028;2022-09-19T14:08:38;1.13;;;1.13;;
57726;SDS011;43568;43.180;-0.028;2022-09-19T14:11:04;1.23;;;1.23;;
57726;SDS011;43568;43.180;-0.028;2022-09-19T14:13:35;1.20;;;1.20;;
57726;SDS011;43568;43.180;-0.028;2022-09-19T14:18:48;2.85;;;1.25;;
57726;SDS011;43568;43.180;-0.028;2022-09-19T14:23:53;1.33;;;1.33;;
57726;SDS011;43568;43.180;-0.028;2022-09-19T14:29:14;1.10;;;1.10;;
57726;SDS011;43568;43.180;-0.028;2022-09-19T14:39:41;1.10;;;1.10;;
57726;SDS011;43568;43.180;-0.028;2022-09-19T14:42:19;1.40;;;1.40;;
57726;SDS011;43568;43.180;-0.028;2022-09-19T14:45:05;1.20;;;1.20;;
57726;SDS011;43568;43.180;-0.028;2022-09-19T14:47:42;3.05;;;1.63;;
57726;SDS011;43568;43.180;-0.028;2022-09-19T14:52:48;1.25;;;1.25;;
57726;SDS011;43568;43.180;-0.028;2022-09-19T14:55:19;1.20;;;1.20;;
57726;SDS011;43568;43.180;-0.028;2022-09-19T14:57:48;1.10;;;1.10;;
57726;SDS011;43568;43.180;-0.028;2022-09-19T15:00:23;1.10;;;1.10;;
57726;SDS011;43568;43.180;-0.028;2022-09-19T15:02:49;1.10;;;1.10;;
57726;SDS011;43568;43.180;-0.028;2022-09-19T15:05:20;1.20;;;1.20;;
57726;SDS011;43568;43.180;-0.028;2022-09-19T15:07:48;1.10;;;1.10;;
57726;SDS011;43568;43.180;-0.028;2022-09-19T15:12:55;1.05;;;1.05;;
57726;SDS011;43568;43.180;-0.028;2022-09-19T15:15:22;1.40;;;1.30;;
57726;SDS011;43568;43.180;-0.028;2022-09-19T15:17:50;1.38;;;1.30;;
57726;SDS011;43568;43.180;-0.028;2022-09-19T15:20:17;1.10;;;1.10;;
57726;SDS011;43568;43.180;-0.028;2022-09-19T15:27:59;1.20;;;1.20;;
57726;SDS011;43568;43.180;-0.028;2022-09-19T15:30:28;1.30;;;1.30;;
57726;SDS011;43568;43.180;-0.028;2022-09-19T15:33:04;1.20;;;1.20;;
57726;SDS011;43568;43.180;-0.028;2022-09-19T15:35:31;1.10;;;1.10;;
57726;SDS011;43568;43.180;-0.028;2022-09-19T15:37:58;1.30;;;1.20;;
57726;SDS011;43568;43.180;-0.028;2022-09-19T15:40:27;1.10;;;1.10;;
57726;SDS011;43568;43.180;-0.028;2022-09-19T15:42:53;1.10;;;1.10;;
57726;SDS011;43568;43.180;-0.028;2022-09-19T15:48:02;1.20;;;1.20;;
57726;SDS011;43568;43.180;-0.028;2022-09-19T15:50:36;1.20;;;1.20;;
57726;SDS011;43568;43.180;-0.028;2022-09-19T15:53:03;1.13;;;1.13;;
57726;SDS011;43568;43.180;-0.028;2022-09-19T15:55:29;1.20;;;1.20;;
57726;SDS011;43568;43.180;-0.028;2022-09-19T15:57:56;1.60;;;1.60;;
57726;SDS011;43568;43.180;-0.028;2022-09-19T16:00:24;1.20;;;1.20;;
57726;SDS011;43568;43.180;-0.028;2022-09-19T16:02:53;1.10;;;1.10;;
57726;SDS011;43568;43.180;-0.028;2022-09-19T16:05:21;1.10;;;1.10;;
57726;SDS011;43568;43.180;-0.028;2022-09-19T16:07:51;1.95;;;1.85;;
57726;SDS011;43568;43.180;-0.028;2022-09-19T16:10:38;3.33;;;1.35;;
57726;SDS011;43568;43.180;-0.028;2022-09-19T16:13:20;1.27;;;1.27;;
57726;SDS011;43568;43.180;-0.028;2022-09-19T16:15:52;1.10;;;1.10;;
57726;SDS011;43568;43.180;-0.028;2022-09-19T16:18:18;1.30;;;1.30;;
57726;SDS011;43568;43.180;-0.028;2022-09-19T16:23:33;1.20;;;1.20;;
57726;SDS011;43568;43.180;-0.028;2022-09-19T16:26:02;1.10;;;1.10;;
57726;SDS011;43568;43.180;-0.028;2022-09-19T16:28:30;1.10;;;1.10;;
57726;SDS011;43568;43.180;-0.028;2022-09-19T16:33:32;1.30;;;1.30;;
57726;SDS011;43568;43.180;-0.028;2022-09-19T16:36:00;1.45;;;1.45;;
57726;SDS011;43568;43.180;-0.028;2022-09-19T16:38:26;1.20;;;1.20;;
57726;SDS011;43568;43.180;-0.028;2022-09-19T16:40:54;1.20;;;1.20;;
57726;SDS011;43568;43.180;-0.028;2022-09-19T16:45:46;1.40;;;1.40;;
57726;SDS011;43568;43.180;-0.028;2022-09-19T16:48:13;1.10;;;1.10;;
57726;SDS011;43568;43.180;-0.028;2022-09-19T16:50:40;1.83;;;1.73;;
57726;SDS011;43568;43.180;-0.028;2022-09-19T16:53:09;1.27;;;1.27;;
57726;SDS011;43568;43.180;-0.028;2022-09-19T16:55:39;1.52;;;1.52;;
57726;SDS011;43568;43.180;-0.028;2022-09-19T16:58:10;1.55;;;1.55;;
57726;SDS011;43568;43.180;-0.028;2022-09-19T17:00:36;1.30;;;1.30;;
57726;SDS011;43568;43.180;-0.028;2022-09-19T17:03:03;1.25;;;1.25;;
57726;SDS011;43568;43.180;-0.028;2022-09-19T17:05:30;1.30;;;1.30;;
57726;SDS011;43568;43.180;-0.028;2022-09-19T17:07:58;1.40;;;1.40;;
57726;SDS011;43568;43.180;-0.028;2022-09-19T17:10:25;1.25;;;1.25;;
57726;SDS011;43568;43.180;-0.028;2022-09-19T17:12:51;1.60;;;1.50;;
57726;SDS011;43568;43.180;-0.028;2022-09-19T17:15:21;1.52;;;1.52;;
57726;SDS011;43568;43.180;-0.028;2022-09-19T17:17:49;1.40;;;1.40;;
57726;SDS011;43568;43.180;-0.028;2022-09-19T17:20:15;1.40;;;1.40;;
57726;SDS011;43568;43.180;-0.028;2022-09-19T17:22:41;1.30;;;1.30;;
57726;SDS011;43568;43.180;-0.028;2022-09-19T17:25:14;1.65;;;1.55;;
57726;SDS011;43568;43.180;-0.028;2022-09-19T17:27:42;1.30;;;1.30;;
57726;SDS011;43568;43.180;-0.028;2022-09-19T17:30:08;1.20;;;1.20;;
57726;SDS011;43568;43.180;-0.028;2022-09-19T17:32:34;1.50;;;1.50;;
57726;SDS011;43568;43.180;-0.028;2022-09-19T17:35:00;1.52;;;1.50;;
57726;SDS011;43568;43.180;-0.028;2022-09-19T17:37:26;1.30;;;1.30;;
57726;SDS011;43568;43.180;-0.028;2022-09-19T17:39:52;1.30;;;1.30;;
57726;SDS011;43568;43.180;-0.028;2022-09-19T17:42:19;1.20;;;1.20;;
57726;SDS011;43568;43.180;-0.028;2022-09-19T17:44:46;1.70;;;1.40;;
57726;SDS011;43568;43.180;-0.028;2022-09-19T17:47:14;1.70;;;1.70;;
57726;SDS011;43568;43.180;-0.028;2022-09-19T17:49:40;1.30;;;1.30;;
57726;SDS011;43568;43.180;-0.028;2022-09-19T17:52:06;1.50;;;1.50;;
57726;SDS011;43568;43.180;-0.028;2022-09-19T17:54:33;1.92;;;1.83;;
57726;SDS011;43568;43.180;-0.028;2022-09-19T17:56:59;1.50;;;1.50;;
57726;SDS011;43568;43.180;-0.028;2022-09-19T17:59:25;1.45;;;1.45;;
57726;SDS011;43568;43.180;-0.028;2022-09-19T18:01:51;1.40;;;1.40;;
57726;SDS011;43568;43.180;-0.028;2022-09-19T18:04:35;1.40;;;1.40;;
57726;SDS011;43568;43.180;-0.028;2022-09-19T18:07:01;1.50;;;1.50;;
57726;SDS011;43568;43.180;-0.028;2022-09-19T18:09:27;1.30;;;1.30;;
57726;SDS011;43568;43.180;-0.028;2022-09-19T18:11:54;1.65;;;1.65;;
57726;SDS011;43568;43.180;-0.028;2022-09-19T18:14:20;1.40;;;1.40;;
57726;SDS011;43568;43.180;-0.028;2022-09-19T18:16:46;1.60;;;1.60;;
57726;SDS011;43568;43.180;-0.028;2022-09-19T18:19:12;1.63;;;1.63;;
57726;SDS011;43568;43.180;-0.028;2022-09-19T18:21:38;1.67;;;1.67;;
57726;SDS011;43568;43.180;-0.028;2022-09-19T18:24:05;1.88;;;1.88;;